Terminal Aerodrome Forecast
Issued by NWS

Home | Current Version | Previous Version | Text Only | Print | Product List | Glossary On
Versions: 1 2 3 4 5 6 7 8 9 10 11 12 13 14 15
000
FTUS43 KOAX 010746 AAA
TAFCDR
TAF AMD
KCDR 010746Z 0108/0206 02010KT 2SM -SN SCT015 OVC030
     FM011000 36011KT 2SM BR OVC005
     FM011600 35008KT P6SM OVC015
     FM011900 34008KT P6SM SKC
     FM020000 VRB03KT P6SM SKC=

USA.gov is the U.S. government's official web portal to all federal, state and local government web resources and services.